Baki Akar — TCA3959 — position and weather

sailwx.info

Track history (hours):
 
Tides and Currents Weather Stations Pressure Air Temp Water Temp Dewpoint Dewpoint Depression Visibility Wind Speed Wind Dir Waves Ship Positions

Baki Akar

Last reported at 2018-Jan-09 00:59 UTC. Time now 2018-Jan-20 07:23 UTC.
Position N 40°13' E 026°25'.
Warning: this ship's position is 11 days out of date.

Length 176 m; draft 7.6 m.

Type: Ship. MMSI: 271044414.

Date/timePositionNaut miles runAvg speedWind from/ knotsBaromVisibWave heightAir tempDewpointWater temp
2018-Jan-09 00:59N 40°13' E 026°25'22 9.5
2018-Jan-08 22:40N 39°59' E 026°02'16 9.5
2018-Jan-08 20:58N 39°44' E 025°56'107 9.1
2018-Jan-08 09:14N 37°57' E 025°51'312.2
2018-Jan-08 08:57N 37°54' E 025°52'1212.3
2018-Jan-08 07:58N 37°42' E 025°54'612.4
2018-Jan-08 07:30N 37°36' E 025°54'612.3
2018-Jan-08 07:01N 37°30' E 025°55'612.3
2018-Jan-08 06:30N 37°24' E 025°57'612.4
2018-Jan-08 06:01N 37°18' E 026°01'22410.9
2018-Jan-07 09:36N 36°08' E 030°25'113.1
2018-Jan-07 09:29N 36°08' E 030°27'612.9
2018-Jan-07 09:00N 36°13' E 030°33'613.1
2018-Jan-07 08:31N 36°19' E 030°34'511.0
2018-Jan-07 08:01N 36°24' E 030°38'1 2.4
2018-Jan-07 07:30N 36°25' E 030°37'4 9.0
2018-Jan-07 07:01N 36°29' E 030°37'612.7
2018-Jan-07 06:31N 36°36' E 030°38'612.1
2018-Jan-07 06:01N 36°42' E 030°38'510.8
2018-Jan-07 05:31N 36°47' E 030°37'0 1.0
2018-Jan-07 05:01N 36°47' E 030°37'2 3.7
2018-Jan-07 04:31N 36°48' E 030°39'1 2.1
2018-Jan-07 04:01N 36°49' E 030°38'1 1.9
2018-Jan-07 03:29N 36°49' E 030°37'0 0.1
2018-Jan-07 02:59N 36°49' E 030°37'0 0.0
2018-Jan-07 02:29N 36°50' E 030°37'0 0.0
2018-Jan-07 01:59N 36°50' E 030°37'0 0.0
2018-Jan-07 01:29N 36°50' E 030°37'0 0.0
2018-Jan-07 00:29N 36°50' E 030°37'0 0.0
2018-Jan-06 23:59N 36°50' E 030°37'0 0.0
2018-Jan-06 23:26N 36°50' E 030°37'0 0.0
2018-Jan-06 22:59N 36°50' E 030°37'0 0.0
2018-Jan-06 22:29N 36°50' E 030°37'0 0.0
2018-Jan-06 21:59N 36°50' E 030°37'0 0.0
2018-Jan-06 21:29N 36°50' E 030°37'0 0.0
2018-Jan-06 20:59N 36°50' E 030°37'0 0.0
2018-Jan-06 20:29N 36°50' E 030°37'0 0.0
2018-Jan-06 17:02N 36°50' E 030°37'0 0.0
2018-Jan-06 16:59N 36°50' E 030°37'0 0.0
2018-Jan-06 16:29N 36°50' E 030°37'0 0.0
2018-Jan-06 15:59N 36°50' E 030°37'0 0.0
2018-Jan-06 15:29N 36°50' E 030°37'0 0.0
2018-Jan-06 14:59N 36°50' E 030°37'0 0.0
2018-Jan-06 14:29N 36°50' E 030°37'0 0.0
2018-Jan-06 13:59N 36°50' E 030°37'0 0.0
2018-Jan-06 13:29N 36°50' E 030°37'0 0.0
2018-Jan-06 12:59N 36°50' E 030°37'0 0.0
2018-Jan-06 12:29N 36°50' E 030°37'0 0.0
2018-Jan-06 11:59N 36°50' E 030°37'0 0.0
2018-Jan-06 11:29N 36°50' E 030°37'0 0.0
2018-Jan-06 10:59N 36°50' E 030°37'0 0.0
2018-Jan-06 10:29N 36°50' E 030°37'0 0.0
2018-Jan-06 09:59N 36°50' E 030°37'0 0.0
2018-Jan-06 09:29N 36°50' E 030°37'0 0.0
2018-Jan-06 08:59N 36°50' E 030°37'0 0.0
2018-Jan-06 08:29N 36°50' E 030°37'0 0.0
2018-Jan-06 07:59N 36°50' E 030°37'0 0.0
2018-Jan-06 07:29N 36°50' E 030°37'0 0.0
2018-Jan-06 06:59N 36°50' E 030°37'0 0.0
2018-Jan-06 06:29N 36°50' E 030°37'0 0.0
2018-Jan-06 05:59N 36°50' E 030°37'0 0.0
2018-Jan-06 05:29N 36°50' E 030°37'0 0.0
2018-Jan-06 04:59N 36°50' E 030°37'0 0.0
2018-Jan-06 04:29N 36°50' E 030°37'0 0.0
2018-Jan-06 03:59N 36°50' E 030°37'0 0.0
2018-Jan-06 03:29N 36°50' E 030°37'0 0.0
2018-Jan-06 02:59N 36°50' E 030°37'0 0.0
2018-Jan-06 02:29N 36°50' E 030°37'0 0.0
2018-Jan-06 01:59N 36°50' E 030°37'0 0.0
2018-Jan-06 01:29N 36°50' E 030°37'0 0.0
2018-Jan-06 00:59N 36°50' E 030°37'0 0.0
2018-Jan-06 00:29N 36°50' E 030°37'0 0.0
2018-Jan-05 23:59N 36°50' E 030°37'0 0.0
2018-Jan-05 23:29N 36°50' E 030°37'0 0.0
2018-Jan-05 22:59N 36°50' E 030°37'0 0.0
2018-Jan-05 22:29N 36°50' E 030°37'0 0.0
2018-Jan-05 21:59N 36°50' E 030°37'0 0.0
2018-Jan-05 21:29N 36°50' E 030°37'0 0.0
2018-Jan-05 20:59N 36°50' E 030°37'0 0.0
2018-Jan-05 20:29N 36°50' E 030°37'0 0.0
2018-Jan-05 19:59N 36°50' E 030°37'0 0.0
2018-Jan-05 19:29N 36°50' E 030°37'0 0.0
2018-Jan-05 18:59N 36°50' E 030°37'0 0.0
2018-Jan-05 18:29N 36°50' E 030°37'0 0.0
2018-Jan-05 17:59N 36°50' E 030°37'0 0.0
2018-Jan-05 17:29N 36°50' E 030°37'0 0.0
2018-Jan-05 16:59N 36°50' E 030°37'0 0.0
2018-Jan-05 16:29N 36°50' E 030°37'0 0.0
2018-Jan-05 15:59N 36°50' E 030°37'0 0.0
2018-Jan-05 15:29N 36°50' E 030°37'0 0.0
2018-Jan-05 14:59N 36°50' E 030°37'0 0.0
2018-Jan-05 14:29N 36°50' E 030°37'0 0.0
2018-Jan-05 13:59N 36°50' E 030°37'0 0.0
2018-Jan-05 13:29N 36°50' E 030°37'0 0.0
2018-Jan-05 12:56N 36°50' E 030°37'0 0.0
2018-Jan-05 12:29N 36°50' E 030°37'0 0.0
2018-Jan-05 11:59N 36°50' E 030°37'0 0.0
2018-Jan-05 11:29N 36°50' E 030°37'0 0.0
2018-Jan-05 10:59N 36°50' E 030°37'0 0.0
2018-Jan-05 10:29N 36°50' E 030°37'0 0.0
2018-Jan-05 09:59N 36°50' E 030°37'0 0.0
2018-Jan-05 09:29N 36°50' E 030°37'0 0.0
2018-Jan-05 08:59N 36°50' E 030°37'0 0.0
2018-Jan-05 08:29N 36°50' E 030°37'0 0.1
2018-Jan-05 07:59N 36°49' E 030°37'0 0.2
2018-Jan-05 07:29N 36°49' E 030°37'0 0.1
2018-Jan-05 06:59N 36°49' E 030°37'0 0.6
2018-Jan-05 06:29N 36°49' E 030°37'1 2.6
2018-Jan-05 06:00N 36°48' E 030°38'2 3.7
2018-Jan-05 05:28N 36°47' E 030°36'0 0.2
2018-Jan-05 04:58N 36°47' E 030°36'0 0.0
2018-Jan-05 04:28N 36°47' E 030°36'0 0.0
2018-Jan-05 03:58N 36°47' E 030°36'0 0.1
2018-Jan-05 03:28N 36°47' E 030°36'0 0.1
2018-Jan-05 02:58N 36°47' E 030°36'0 0.0
2018-Jan-05 02:28N 36°47' E 030°36'0 0.0
2018-Jan-05 01:58N 36°47' E 030°36'0 0.1
2018-Jan-05 01:28N 36°47' E 030°36'0 0.1
2018-Jan-05 00:58N 36°47' E 030°36'0 0.1
2018-Jan-05 00:28N 36°47' E 030°36'0 0.2
2018-Jan-04 23:58N 36°47' E 030°36'0 0.1
2018-Jan-04 23:28N 36°47' E 030°36'0 0.0
2018-Jan-04 22:58N 36°47' E 030°36'0 0.1
2018-Jan-04 22:28N 36°47' E 030°36'0 0.0
2018-Jan-04 21:58N 36°47' E 030°36'0 0.0
2018-Jan-04 21:28N 36°47' E 030°36'0 0.1
2018-Jan-04 20:58N 36°47' E 030°36'0 0.1
2018-Jan-04 20:28N 36°47' E 030°36'0 0.1
2018-Jan-04 19:58N 36°47' E 030°36'0 0.0
2018-Jan-04 19:28N 36°47' E 030°36'0 0.1
2018-Jan-04 18:58N 36°47' E 030°36'0 0.1
2018-Jan-04 18:28N 36°47' E 030°36'0 0.0
2018-Jan-04 17:55N 36°47' E 030°36'0 0.4
2018-Jan-04 17:30N 36°47' E 030°36'3 6.8
2018-Jan-04 17:00N 36°44' E 030°38'612.6
2018-Jan-04 16:30N 36°38' E 030°38'612.8
2018-Jan-04 16:00N 36°31' E 030°38'612.9
2018-Jan-04 15:30N 36°25' E 030°36'612.3
2018-Jan-04 15:00N 36°19' E 030°34'612.2
2018-Jan-04 14:30N 36°13' E 030°31'711.5
2018-Jan-04 13:56N 36°08' E 030°26'17311.2
2018-Jan-03 22:27N 36°28' E 026°53'512.3
2018-Jan-03 22:00N 36°32' E 026°48'612.3
2018-Jan-03 21:30N 36°36' E 026°42'612.4
2018-Jan-03 21:00N 36°41' E 026°37'612.5
2018-Jan-03 20:30N 36°45' E 026°31'613.0
2018-Jan-03 20:00N 36°49' E 026°25'612.8
2018-Jan-03 19:30N 36°53' E 026°19'612.4
2018-Jan-03 19:00N 36°57' E 026°13'612.4
2018-Jan-03 18:30N 37°02' E 026°09'612.4
2018-Jan-03 18:00N 37°08' E 026°06'612.5
2018-Jan-03 17:30N 37°14' E 026°03'613.0
2018-Jan-03 17:00N 37°20' E 025°60'713.1
2018-Jan-03 16:30N 37°26' E 025°56'713.1
2018-Jan-03 16:00N 37°32' E 025°53'613.0
2018-Jan-03 15:30N 37°38' E 025°53'712.5
2018-Jan-03 14:56N 37°46' E 025°52'512.3
2018-Jan-03 14:29N 37°51' E 025°51'612.3
2018-Jan-03 14:00N 37°57' E 025°49'  
Track history (hours):
 
Tides and Currents Weather Stations Pressure Air Temp Water Temp Dewpoint Dewpoint Depression Visibility Wind Speed Wind Dir Waves Ship Positions

Baki Akar

Last reported at 2018-Jan-09 00:59 UTC. Time now 2018-Jan-20 07:23 UTC.
Position N 40°13' E 026°25'.
Warning: this ship's position is 11 days out of date.

Length 176 m; draft 7.6 m.

Type: Ship. MMSI: 271044414.

Date/timePositionNaut miles runAvg speedWind from/ knotsBaromVisibWave heightAir tempDewpointWater temp
2018-Jan-09 00:59N 40°13' E 026°25'22 9.5
2018-Jan-08 22:40N 39°59' E 026°02'16 9.5
2018-Jan-08 20:58N 39°44' E 025°56'107 9.1
2018-Jan-08 09:14N 37°57' E 025°51'312.2
2018-Jan-08 08:57N 37°54' E 025°52'1212.3
2018-Jan-08 07:58N 37°42' E 025°54'612.4
2018-Jan-08 07:30N 37°36' E 025°54'612.3
2018-Jan-08 07:01N 37°30' E 025°55'612.3
2018-Jan-08 06:30N 37°24' E 025°57'612.4
2018-Jan-08 06:01N 37°18' E 026°01'22410.9
2018-Jan-07 09:36N 36°08' E 030°25'113.1
2018-Jan-07 09:29N 36°08' E 030°27'612.9
2018-Jan-07 09:00N 36°13' E 030°33'613.1
2018-Jan-07 08:31N 36°19' E 030°34'511.0
2018-Jan-07 08:01N 36°24' E 030°38'1 2.4
2018-Jan-07 07:30N 36°25' E 030°37'4 9.0
2018-Jan-07 07:01N 36°29' E 030°37'612.7
2018-Jan-07 06:31N 36°36' E 030°38'612.1
2018-Jan-07 06:01N 36°42' E 030°38'510.8
2018-Jan-07 05:31N 36°47' E 030°37'0 1.0
2018-Jan-07 05:01N 36°47' E 030°37'2 3.7
2018-Jan-07 04:31N 36°48' E 030°39'1 2.1
2018-Jan-07 04:01N 36°49' E 030°38'1 1.9
2018-Jan-07 03:29N 36°49' E 030°37'0 0.1
2018-Jan-07 02:59N 36°49' E 030°37'0 0.0
2018-Jan-07 02:29N 36°50' E 030°37'0 0.0
2018-Jan-07 01:59N 36°50' E 030°37'0 0.0
2018-Jan-07 01:29N 36°50' E 030°37'0 0.0
2018-Jan-07 00:29N 36°50' E 030°37'0 0.0
2018-Jan-06 23:59N 36°50' E 030°37'0 0.0
2018-Jan-06 23:26N 36°50' E 030°37'0 0.0
2018-Jan-06 22:59N 36°50' E 030°37'0 0.0
2018-Jan-06 22:29N 36°50' E 030°37'0 0.0
2018-Jan-06 21:59N 36°50' E 030°37'0 0.0
2018-Jan-06 21:29N 36°50' E 030°37'0 0.0
2018-Jan-06 20:59N 36°50' E 030°37'0 0.0
2018-Jan-06 20:29N 36°50' E 030°37'0 0.0
2018-Jan-06 17:02N 36°50' E 030°37'0 0.0
2018-Jan-06 16:59N 36°50' E 030°37'0 0.0
2018-Jan-06 16:29N 36°50' E 030°37'0 0.0
2018-Jan-06 15:59N 36°50' E 030°37'0 0.0
2018-Jan-06 15:29N 36°50' E 030°37'0 0.0
2018-Jan-06 14:59N 36°50' E 030°37'0 0.0
2018-Jan-06 14:29N 36°50' E 030°37'0 0.0
2018-Jan-06 13:59N 36°50' E 030°37'0 0.0
2018-Jan-06 13:29N 36°50' E 030°37'0 0.0
2018-Jan-06 12:59N 36°50' E 030°37'0 0.0
2018-Jan-06 12:29N 36°50' E 030°37'0 0.0
2018-Jan-06 11:59N 36°50' E 030°37'0 0.0
2018-Jan-06 11:29N 36°50' E 030°37'0 0.0
2018-Jan-06 10:59N 36°50' E 030°37'0 0.0
2018-Jan-06 10:29N 36°50' E 030°37'0 0.0
2018-Jan-06 09:59N 36°50' E 030°37'0 0.0
2018-Jan-06 09:29N 36°50' E 030°37'0 0.0
2018-Jan-06 08:59N 36°50' E 030°37'0 0.0
2018-Jan-06 08:29N 36°50' E 030°37'0 0.0
2018-Jan-06 07:59N 36°50' E 030°37'0 0.0
2018-Jan-06 07:29N 36°50' E 030°37'0 0.0
2018-Jan-06 06:59N 36°50' E 030°37'0 0.0
2018-Jan-06 06:29N 36°50' E 030°37'0 0.0
2018-Jan-06 05:59N 36°50' E 030°37'0 0.0
2018-Jan-06 05:29N 36°50' E 030°37'0 0.0
2018-Jan-06 04:59N 36°50' E 030°37'0 0.0
2018-Jan-06 04:29N 36°50' E 030°37'0 0.0
2018-Jan-06 03:59N 36°50' E 030°37'0 0.0
2018-Jan-06 03:29N 36°50' E 030°37'0 0.0
2018-Jan-06 02:59N 36°50' E 030°37'0 0.0
2018-Jan-06 02:29N 36°50' E 030°37'0 0.0
2018-Jan-06 01:59N 36°50' E 030°37'0 0.0
2018-Jan-06 01:29N 36°50' E 030°37'0 0.0
2018-Jan-06 00:59N 36°50' E 030°37'0 0.0
2018-Jan-06 00:29N 36°50' E 030°37'0 0.0
2018-Jan-05 23:59N 36°50' E 030°37'0 0.0
2018-Jan-05 23:29N 36°50' E 030°37'0 0.0
2018-Jan-05 22:59N 36°50' E 030°37'0 0.0
2018-Jan-05 22:29N 36°50' E 030°37'0 0.0
2018-Jan-05 21:59N 36°50' E 030°37'0 0.0
2018-Jan-05 21:29N 36°50' E 030°37'0 0.0
2018-Jan-05 20:59N 36°50' E 030°37'0 0.0
2018-Jan-05 20:29N 36°50' E 030°37'0 0.0
2018-Jan-05 19:59N 36°50' E 030°37'0 0.0
2018-Jan-05 19:29N 36°50' E 030°37'0 0.0
2018-Jan-05 18:59N 36°50' E 030°37'0 0.0
2018-Jan-05 18:29N 36°50' E 030°37'0 0.0
2018-Jan-05 17:59N 36°50' E 030°37'0 0.0
2018-Jan-05 17:29N 36°50' E 030°37'0 0.0
2018-Jan-05 16:59N 36°50' E 030°37'0 0.0
2018-Jan-05 16:29N 36°50' E 030°37'0 0.0
2018-Jan-05 15:59N 36°50' E 030°37'0 0.0
2018-Jan-05 15:29N 36°50' E 030°37'0 0.0
2018-Jan-05 14:59N 36°50' E 030°37'0 0.0
2018-Jan-05 14:29N 36°50' E 030°37'0 0.0
2018-Jan-05 13:59N 36°50' E 030°37'0 0.0
2018-Jan-05 13:29N 36°50' E 030°37'0 0.0
2018-Jan-05 12:56N 36°50' E 030°37'0 0.0
2018-Jan-05 12:29N 36°50' E 030°37'0 0.0
2018-Jan-05 11:59N 36°50' E 030°37'0 0.0
2018-Jan-05 11:29N 36°50' E 030°37'0 0.0
2018-Jan-05 10:59N 36°50' E 030°37'0 0.0
2018-Jan-05 10:29N 36°50' E 030°37'0 0.0
2018-Jan-05 09:59N 36°50' E 030°37'0 0.0
2018-Jan-05 09:29N 36°50' E 030°37'0 0.0
2018-Jan-05 08:59N 36°50' E 030°37'0 0.0
2018-Jan-05 08:29N 36°50' E 030°37'0 0.1
2018-Jan-05 07:59N 36°49' E 030°37'0 0.2
2018-Jan-05 07:29N 36°49' E 030°37'0 0.1
2018-Jan-05 06:59N 36°49' E 030°37'0 0.6
2018-Jan-05 06:29N 36°49' E 030°37'1 2.6
2018-Jan-05 06:00N 36°48' E 030°38'2 3.7
2018-Jan-05 05:28N 36°47' E 030°36'0 0.2
2018-Jan-05 04:58N 36°47' E 030°36'0 0.0
2018-Jan-05 04:28N 36°47' E 030°36'0 0.0
2018-Jan-05 03:58N 36°47' E 030°36'0 0.1
2018-Jan-05 03:28N 36°47' E 030°36'0 0.1
2018-Jan-05 02:58N 36°47' E 030°36'0 0.0
2018-Jan-05 02:28N 36°47' E 030°36'0 0.0
2018-Jan-05 01:58N 36°47' E 030°36'0 0.1
2018-Jan-05 01:28N 36°47' E 030°36'0 0.1
2018-Jan-05 00:58N 36°47' E 030°36'0 0.1
2018-Jan-05 00:28N 36°47' E 030°36'0 0.2
2018-Jan-04 23:58N 36°47' E 030°36'0 0.1
2018-Jan-04 23:28N 36°47' E 030°36'0 0.0
2018-Jan-04 22:58N 36°47' E 030°36'0 0.1
2018-Jan-04 22:28N 36°47' E 030°36'0 0.0
2018-Jan-04 21:58N 36°47' E 030°36'0 0.0
2018-Jan-04 21:28N 36°47' E 030°36'0 0.1
2018-Jan-04 20:58N 36°47' E 030°36'0 0.1
2018-Jan-04 20:28N 36°47' E 030°36'0 0.1
2018-Jan-04 19:58N 36°47' E 030°36'0 0.0
2018-Jan-04 19:28N 36°47' E 030°36'0 0.1
2018-Jan-04 18:58N 36°47' E 030°36'0 0.1
2018-Jan-04 18:28N 36°47' E 030°36'0 0.0
2018-Jan-04 17:55N 36°47' E 030°36'0 0.4
2018-Jan-04 17:30N 36°47' E 030°36'3 6.8
2018-Jan-04 17:00N 36°44' E 030°38'612.6
2018-Jan-04 16:30N 36°38' E 030°38'612.8
2018-Jan-04 16:00N 36°31' E 030°38'612.9
2018-Jan-04 15:30N 36°25' E 030°36'612.3
2018-Jan-04 15:00N 36°19' E 030°34'612.2
2018-Jan-04 14:30N 36°13' E 030°31'711.5
2018-Jan-04 13:56N 36°08' E 030°26'17311.2
2018-Jan-03 22:27N 36°28' E 026°53'512.3
2018-Jan-03 22:00N 36°32' E 026°48'612.3
2018-Jan-03 21:30N 36°36' E 026°42'612.4
2018-Jan-03 21:00N 36°41' E 026°37'612.5
2018-Jan-03 20:30N 36°45' E 026°31'613.0
2018-Jan-03 20:00N 36°49' E 026°25'612.8
2018-Jan-03 19:30N 36°53' E 026°19'612.4
2018-Jan-03 19:00N 36°57' E 026°13'612.4
2018-Jan-03 18:30N 37°02' E 026°09'612.4
2018-Jan-03 18:00N 37°08' E 026°06'612.5
2018-Jan-03 17:30N 37°14' E 026°03'613.0
2018-Jan-03 17:00N 37°20' E 025°60'713.1
2018-Jan-03 16:30N 37°26' E 025°56'713.1
2018-Jan-03 16:00N 37°32' E 025°53'613.0
2018-Jan-03 15:30N 37°38' E 025°53'712.5
2018-Jan-03 14:56N 37°46' E 025°52'512.3
2018-Jan-03 14:29N 37°51' E 025°51'612.3
2018-Jan-03 14:00N 37°57' E 025°49'  

Dump ship's entire track history